sensor_id;sensor_type;location;lat;lon;timestamp;noise_LAeq;noise_LA_min;noise_LA_max;noise_LA01;noise_LA95
57092;Laerm;42968;52.094;4.328;2024-03-06T00:01:31;56.29;36.56;72.78;;
57092;Laerm;42968;52.094;4.328;2024-03-06T00:03:56;52.73;35.66;68.71;;
57092;Laerm;42968;52.094;4.328;2024-03-06T00:06:22;59.02;38.52;73.77;;
57092;Laerm;42968;52.094;4.328;2024-03-06T00:08:47;41.55;35.66;53.66;;
57092;Laerm;42968;52.094;4.328;2024-03-06T00:11:12;52.36;36.69;67.59;;
57092;Laerm;42968;52.094;4.328;2024-03-06T00:13:37;59.43;35.04;73.91;;
57092;Laerm;42968;52.094;4.328;2024-03-06T00:16:03;56.80;35.94;76.46;;
57092;Laerm;42968;52.094;4.328;2024-03-06T00:18:29;60.78;35.36;75.19;;
57092;Laerm;42968;52.094;4.328;2024-03-06T00:20:54;52.77;36.45;68.04;;
57092;Laerm;42968;52.094;4.328;2024-03-06T00:23:19;52.40;36.45;67.98;;
57092;Laerm;42968;52.094;4.328;2024-03-06T00:25:44;40.01;35.66;44.97;;
57092;Laerm;42968;52.094;4.328;2024-03-06T00:28:09;59.62;36.91;79.17;;
57092;Laerm;42968;52.094;4.328;2024-03-06T00:30:35;44.92;35.94;66.07;;
57092;Laerm;42968;52.094;4.328;2024-03-06T00:33:00;59.95;36.69;80.69;;
57092;Laerm;42968;52.094;4.328;2024-03-06T00:35:26;54.15;36.45;71.99;;
57092;Laerm;42968;52.094;4.328;2024-03-06T00:37:51;56.42;35.36;72.13;;
57092;Laerm;42968;52.094;4.328;2024-03-06T00:40:16;51.19;35.04;67.32;;
57092;Laerm;42968;52.094;4.328;2024-03-06T00:42:42;52.10;34.69;69.43;;
57092;Laerm;42968;52.094;4.328;2024-03-06T00:45:07;60.37;35.94;74.33;;
57092;Laerm;42968;52.094;4.328;2024-03-06T00:47:32;42.47;35.66;56.20;;
57092;Laerm;42968;52.094;4.328;2024-03-06T00:50:00;53.79;35.04;73.81;;
57092;Laerm;42968;52.094;4.328;2024-03-06T00:52:25;54.91;37.32;70.93;;
57092;Laerm;42968;52.094;4.328;2024-03-06T00:54:50;39.15;35.31;44.97;;
57092;Laerm;42968;52.094;4.328;2024-03-06T00:57:15;59.08;35.94;73.34;;
57092;Laerm;42968;52.094;4.328;2024-03-06T00:59:41;39.87;34.69;45.48;;
57092;Laerm;42968;52.094;4.328;2024-03-06T01:02:06;51.07;35.66;69.76;;
57092;Laerm;42968;52.094;4.328;2024-03-06T01:04:31;58.00;36.69;70.76;;
57092;Laerm;42968;52.094;4.328;2024-03-06T01:06:56;50.01;35.04;69.89;;
57092;Laerm;42968;52.094;4.328;2024-03-06T01:09:23;40.10;34.69;49.73;;
57092;Laerm;42968;52.094;4.328;2024-03-06T01:11:48;50.00;35.66;69.05;;
57092;Laerm;42968;52.094;4.328;2024-03-06T01:14:13;55.57;35.36;71.58;;
57092;Laerm;42968;52.094;4.328;2024-03-06T01:16:39;57.66;34.31;72.45;;
57092;Laerm;42968;52.094;4.328;2024-03-06T01:19:04;39.72;33.90;46.40;;
57092;Laerm;42968;52.094;4.328;2024-03-06T01:21:29;55.90;35.66;72.82;;
57092;Laerm;42968;52.094;4.328;2024-03-06T01:23:55;53.51;35.04;73.58;;
57092;Laerm;42968;52.094;4.328;2024-03-06T01:26:20;59.08;37.12;72.63;;
57092;Laerm;42968;52.094;4.328;2024-03-06T01:28:46;39.94;35.04;46.93;;
57092;Laerm;42968;52.094;4.328;2024-03-06T01:31:11;39.08;34.69;41.30;;
57092;Laerm;42968;52.094;4.328;2024-03-06T01:33:36;39.50;35.36;46.28;;
57092;Laerm;42968;52.094;4.328;2024-03-06T01:36:02;39.47;34.31;43.09;;
57092;Laerm;42968;52.094;4.328;2024-03-06T01:38:27;54.17;35.36;72.07;;
57092;Laerm;42968;52.094;4.328;2024-03-06T01:40:52;52.64;34.69;66.23;;
57092;Laerm;42968;52.094;4.328;2024-03-06T01:43:19;51.94;35.94;68.16;;
57092;Laerm;42968;52.094;4.328;2024-03-06T01:45:45;51.30;35.04;70.62;;
57092;Laerm;42968;52.094;4.328;2024-03-06T01:48:12;39.93;35.36;49.28;;
57092;Laerm;42968;52.094;4.328;2024-03-06T01:50:37;55.59;35.36;72.94;;
57092;Laerm;42968;52.094;4.328;2024-03-06T01:53:02;47.87;35.36;64.12;;
57092;Laerm;42968;52.094;4.328;2024-03-06T01:55:28;54.32;36.20;68.37;;
57092;Laerm;42968;52.094;4.328;2024-03-06T01:57:53;53.05;35.36;71.83;;
57092;Laerm;42968;52.094;4.328;2024-03-06T02:00:19;39.84;35.04;45.77;;
57092;Laerm;42968;52.094;4.328;2024-03-06T02:02:45;55.63;35.31;72.18;;
57092;Laerm;42968;52.094;4.328;2024-03-06T02:05:11;39.14;35.04;53.35;;
57092;Laerm;42968;52.094;4.328;2024-03-06T02:07:38;39.16;35.36;42.03;;
57092;Laerm;42968;52.094;4.328;2024-03-06T02:10:04;51.85;34.69;68.48;;
57092;Laerm;42968;52.094;4.328;2024-03-06T02:12:31;39.23;35.36;42.59;;
57092;Laerm;42968;52.094;4.328;2024-03-06T02:14:58;39.54;35.66;41.96;;
57092;Laerm;42968;52.094;4.328;2024-03-06T02:17:23;60.20;36.45;78.56;;
57092;Laerm;42968;52.094;4.328;2024-03-06T02:19:50;41.88;37.52;50.60;;
57092;Laerm;42968;52.094;4.328;2024-03-06T02:22:15;53.23;36.69;69.34;;
57092;Laerm;42968;52.094;4.328;2024-03-06T02:24:44;51.35;35.36;69.52;;
57092;Laerm;42968;52.094;4.328;2024-03-06T02:27:10;53.23;36.20;72.38;;
57092;Laerm;42968;52.094;4.328;2024-03-06T02:29:35;52.36;35.04;68.90;;
57092;Laerm;42968;52.094;4.328;2024-03-06T02:32:01;56.62;35.94;70.82;;
57092;Laerm;42968;52.094;4.328;2024-03-06T02:34:29;49.02;35.36;66.98;;
57092;Laerm;42968;52.094;4.328;2024-03-06T02:36:55;38.86;34.31;41.46;;
57092;Laerm;42968;52.094;4.328;2024-03-06T02:39:21;55.97;35.94;70.70;;
57092;Laerm;42968;52.094;4.328;2024-03-06T02:41:46;40.10;34.69;61.39;;
57092;Laerm;42968;52.094;4.328;2024-03-06T02:44:12;39.14;33.44;42.88;;
57092;Laerm;42968;52.094;4.328;2024-03-06T02:46:37;39.11;35.04;45.04;;
57092;Laerm;42968;52.094;4.328;2024-03-06T02:49:02;51.73;33.90;70.99;;
57092;Laerm;42968;52.094;4.328;2024-03-06T02:51:27;49.74;36.20;66.34;;
57092;Laerm;42968;52.094;4.328;2024-03-06T02:53:53;39.13;34.31;43.34;;
57092;Laerm;42968;52.094;4.328;2024-03-06T02:56:18;41.24;35.36;52.07;;
57092;Laerm;42968;52.094;4.328;2024-03-06T02:58:44;55.78;34.69;71.88;;
57092;Laerm;42968;52.094;4.328;2024-03-06T03:01:10;55.24;35.66;74.71;;
57092;Laerm;42968;52.094;4.328;2024-03-06T03:03:35;38.95;33.44;43.63;;
57092;Laerm;42968;52.094;4.328;2024-03-06T03:06:01;39.11;34.31;43.58;;
57092;Laerm;42968;52.094;4.328;2024-03-06T03:08:26;39.80;34.69;49.41;;
57092;Laerm;42968;52.094;4.328;2024-03-06T03:10:51;39.69;35.04;49.91;;
57092;Laerm;42968;52.094;4.328;2024-03-06T03:13:16;50.20;35.66;64.58;;
57092;Laerm;42968;52.094;4.328;2024-03-06T03:15:42;53.99;35.94;73.05;;
57092;Laerm;42968;52.094;4.328;2024-03-06T03:18:07;56.46;37.70;73.05;;
57092;Laerm;42968;52.094;4.328;2024-03-06T03:20:33;51.11;35.66;67.30;;
57092;Laerm;42968;52.094;4.328;2024-03-06T03:22:58;41.82;35.04;60.96;;
57092;Laerm;42968;52.094;4.328;2024-03-06T03:25:24;53.82;36.20;72.90;;
57092;Laerm;42968;52.094;4.328;2024-03-06T03:27:50;53.50;37.12;72.57;;
57092;Laerm;42968;52.094;4.328;2024-03-06T03:30:15;47.02;36.20;64.84;;
57092;Laerm;42968;52.094;4.328;2024-03-06T03:32:41;55.35;36.20;69.76;;
57092;Laerm;42968;52.094;4.328;2024-03-06T03:35:06;55.13;36.45;68.87;;
57092;Laerm;42968;52.094;4.328;2024-03-06T03:37:32;52.33;35.94;67.45;;
57092;Laerm;42968;52.094;4.328;2024-03-06T03:39:57;52.54;36.45;68.28;;
57092;Laerm;42968;52.094;4.328;2024-03-06T03:42:22;58.52;37.88;75.40;;
57092;Laerm;42968;52.094;4.328;2024-03-06T03:44:48;56.34;37.12;73.87;;
57092;Laerm;42968;52.094;4.328;2024-03-06T03:47:13;51.78;36.69;68.90;;
57092;Laerm;42968;52.094;4.328;2024-03-06T03:49:38;52.90;37.32;71.07;;
57092;Laerm;42968;52.094;4.328;2024-03-06T03:52:04;59.77;37.88;77.89;;
57092;Laerm;42968;52.094;4.328;2024-03-06T03:54:31;58.04;37.70;71.36;;
57092;Laerm;42968;52.094;4.328;2024-03-06T03:56:56;60.07;40.80;73.02;;
57092;Laerm;42968;52.094;4.328;2024-03-06T03:59:21;55.62;38.05;71.00;;
57092;Laerm;42968;52.094;4.328;2024-03-06T04:01:47;46.45;36.45;62.13;;
57092;Laerm;42968;52.094;4.328;2024-03-06T04:04:12;60.27;39.08;73.87;;
57092;Laerm;42968;52.094;4.328;2024-03-06T04:06:38;56.05;37.88;73.23;;
57092;Laerm;42968;52.094;4.328;2024-03-06T04:09:03;58.73;37.52;72.20;;
57092;Laerm;42968;52.094;4.328;2024-03-06T04:11:29;61.91;39.70;76.55;;
57092;Laerm;42968;52.094;4.328;2024-03-06T04:13:55;61.83;40.23;74.68;;
57092;Laerm;42968;52.094;4.328;2024-03-06T04:16:20;60.41;38.67;74.94;;
57092;Laerm;42968;52.094;4.328;2024-03-06T04:18:46;62.54;42.29;75.57;;
57092;Laerm;42968;52.094;4.328;2024-03-06T04:21:11;62.93;42.35;77.78;;
57092;Laerm;42968;52.094;4.328;2024-03-06T04:23:36;61.28;43.44;76.45;;
57092;Laerm;42968;52.094;4.328;2024-03-06T04:26:02;62.75;43.14;74.99;;
57092;Laerm;42968;52.094;4.328;2024-03-06T04:28:28;65.65;48.40;80.22;;
57092;Laerm;42968;52.094;4.328;2024-03-06T04:30:53;63.52;43.39;75.92;;
57092;Laerm;42968;52.094;4.328;2024-03-06T04:33:19;64.56;43.24;78.25;;
57092;Laerm;42968;52.094;4.328;2024-03-06T04:35:45;61.45;42.98;75.39;;
57092;Laerm;42968;52.094;4.328;2024-03-06T04:38:10;64.28;44.51;79.70;;
57092;Laerm;42968;52.094;4.328;2024-03-06T04:40:35;65.52;45.42;82.29;;
57092;Laerm;42968;52.094;4.328;2024-03-06T04:43:01;63.28;43.39;76.94;;
57092;Laerm;42968;52.094;4.328;2024-03-06T04:45:26;63.64;43.99;75.99;;
57092;Laerm;42968;52.094;4.328;2024-03-06T04:47:51;66.17;45.54;78.59;;
57092;Laerm;42968;52.094;4.328;2024-03-06T04:50:17;63.92;43.44;78.67;;
57092;Laerm;42968;52.094;4.328;2024-03-06T04:52:42;64.35;40.89;77.83;;
57092;Laerm;42968;52.094;4.328;2024-03-06T04:55:09;67.64;43.09;84.32;;
57092;Laerm;42968;52.094;4.328;2024-03-06T04:57:36;66.72;47.50;77.35;;
57092;Laerm;42968;52.094;4.328;2024-03-06T05:00:01;63.35;42.03;74.81;;
57092;Laerm;42968;52.094;4.328;2024-03-06T05:02:30;66.14;44.54;80.27;;
57092;Laerm;42968;52.094;4.328;2024-03-06T05:04:58;65.46;46.07;77.42;;
57092;Laerm;42968;52.094;4.328;2024-03-06T05:07:23;68.51;51.88;82.92;;
57092;Laerm;42968;52.094;4.328;2024-03-06T05:09:48;64.40;43.90;76.32;;
57092;Laerm;42968;52.094;4.328;2024-03-06T05:12:14;64.76;51.87;74.88;;
57092;Laerm;42968;52.094;4.328;2024-03-06T05:14:39;66.18;49.81;74.13;;
57092;Laerm;42968;52.094;4.328;2024-03-06T05:17:04;65.85;48.40;75.65;;
57092;Laerm;42968;52.094;4.328;2024-03-06T05:19:29;66.15;48.49;77.18;;
57092;Laerm;42968;52.094;4.328;2024-03-06T05:21:59;68.42;48.99;79.55;;
57092;Laerm;42968;52.094;4.328;2024-03-06T05:24:25;66.73;47.02;83.02;;
57092;Laerm;42968;52.094;4.328;2024-03-06T05:26:50;66.31;44.39;78.72;;
57092;Laerm;42968;52.094;4.328;2024-03-06T05:29:16;66.94;48.74;77.86;;
57092;Laerm;42968;52.094;4.328;2024-03-06T05:31:41;69.90;49.77;80.79;;
57092;Laerm;42968;52.094;4.328;2024-03-06T05:34:06;68.41;48.02;79.09;;
57092;Laerm;42968;52.094;4.328;2024-03-06T05:36:31;68.98;51.64;78.29;;
57092;Laerm;42968;52.094;4.328;2024-03-06T05:38:57;69.30;50.92;77.52;;
57092;Laerm;42968;52.094;4.328;2024-03-06T05:41:22;69.77;45.89;80.88;;
57092;Laerm;42968;52.094;4.328;2024-03-06T05:43:47;69.61;47.79;80.11;;
57092;Laerm;42968;52.094;4.328;2024-03-06T05:46:13;68.39;46.50;76.95;;
57092;Laerm;42968;52.094;4.328;2024-03-06T05:48:38;68.06;47.02;79.11;;
57092;Laerm;42968;52.094;4.328;2024-03-06T05:51:03;70.77;53.29;81.53;;
57092;Laerm;42968;52.094;4.328;2024-03-06T05:53:28;70.15;50.82;77.93;;
57092;Laerm;42968;52.094;4.328;2024-03-06T05:55:54;70.08;53.28;81.52;;
57092;Laerm;42968;52.094;4.328;2024-03-06T05:58:19;69.81;48.08;78.72;;
57092;Laerm;42968;52.094;4.328;2024-03-06T06:00:45;71.11;55.79;82.25;;
57092;Laerm;42968;52.094;4.328;2024-03-06T06:03:10;69.50;51.18;78.65;;
57092;Laerm;42968;52.094;4.328;2024-03-06T06:05:38;69.74;53.12;83.92;;
57092;Laerm;42968;52.094;4.328;2024-03-06T06:08:06;67.56;48.02;77.43;;
57092;Laerm;42968;52.094;4.328;2024-03-06T06:10:31;68.76;53.43;82.28;;
57092;Laerm;42968;52.094;4.328;2024-03-06T06:12:57;70.91;58.57;79.90;;
57092;Laerm;42968;52.094;4.328;2024-03-06T06:15:22;71.42;51.12;78.87;;
57092;Laerm;42968;52.094;4.328;2024-03-06T06:17:48;68.68;51.06;77.09;;
57092;Laerm;42968;52.094;4.328;2024-03-06T06:20:13;70.44;51.11;79.16;;
57092;Laerm;42968;52.094;4.328;2024-03-06T06:22:43;70.40;53.51;79.83;;
57092;Laerm;42968;52.094;4.328;2024-03-06T06:25:08;71.49;50.68;80.54;;
57092;Laerm;42968;52.094;4.328;2024-03-06T06:27:34;68.76;52.03;79.70;;
57092;Laerm;42968;52.094;4.328;2024-03-06T06:30:00;69.72;55.40;76.96;;
57092;Laerm;42968;52.094;4.328;2024-03-06T06:32:25;70.83;52.87;79.08;;
57092;Laerm;42968;52.094;4.328;2024-03-06T06:34:50;69.96;49.16;78.98;;
57092;Laerm;42968;52.094;4.328;2024-03-06T06:37:16;70.42;48.21;87.63;;
57092;Laerm;42968;52.094;4.328;2024-03-06T06:39:43;70.50;50.44;79.73;;
57092;Laerm;42968;52.094;4.328;2024-03-06T06:42:08;70.85;53.65;79.70;;
57092;Laerm;42968;52.094;4.328;2024-03-06T06:44:35;70.63;49.55;78.55;;
57092;Laerm;42968;52.094;4.328;2024-03-06T06:47:01;72.06;57.59;83.57;;
57092;Laerm;42968;52.094;4.328;2024-03-06T06:49:26;69.29;51.40;78.26;;
57092;Laerm;42968;52.094;4.328;2024-03-06T06:51:52;71.63;62.32;80.07;;
57092;Laerm;42968;52.094;4.328;2024-03-06T06:54:17;69.05;53.90;78.63;;
57092;Laerm;42968;52.094;4.328;2024-03-06T06:56:43;70.17;57.34;76.95;;
57092;Laerm;42968;52.094;4.328;2024-03-06T06:59:08;69.99;48.48;82.47;;
57092;Laerm;42968;52.094;4.328;2024-03-06T07:01:33;71.59;49.71;81.63;;
57092;Laerm;42968;52.094;4.328;2024-03-06T07:03:58;71.14;55.36;78.57;;
57092;Laerm;42968;52.094;4.328;2024-03-06T07:06:24;71.35;56.25;82.69;;
57092;Laerm;42968;52.094;4.328;2024-03-06T07:08:49;70.60;53.06;80.88;;
57092;Laerm;42968;52.094;4.328;2024-03-06T07:11:16;71.69;54.26;78.65;;
57092;Laerm;42968;52.094;4.328;2024-03-06T07:13:41;70.80;60.02;76.48;;
57092;Laerm;42968;52.094;4.328;2024-03-06T07:16:06;70.33;55.96;79.45;;
57092;Laerm;42968;52.094;4.328;2024-03-06T07:18:32;70.41;56.70;77.88;;
57092;Laerm;42968;52.094;4.328;2024-03-06T07:20:57;69.99;59.39;80.47;;
57092;Laerm;42968;52.094;4.328;2024-03-06T07:23:23;70.74;52.77;79.59;;
57092;Laerm;42968;52.094;4.328;2024-03-06T07:25:48;72.88;55.87;81.08;;
57092;Laerm;42968;52.094;4.328;2024-03-06T07:28:13;69.45;49.49;87.19;;
57092;Laerm;42968;52.094;4.328;2024-03-06T07:30:38;72.36;49.27;81.07;;
57092;Laerm;42968;52.094;4.328;2024-03-06T07:33:04;71.38;52.44;80.21;;
57092;Laerm;42968;52.094;4.328;2024-03-06T07:35:29;72.29;61.43;80.97;;
57092;Laerm;42968;52.094;4.328;2024-03-06T07:37:55;70.87;56.82;78.88;;
57092;Laerm;42968;52.094;4.328;2024-03-06T07:40:20;70.40;60.19;76.60;;
57092;Laerm;42968;52.094;4.328;2024-03-06T07:42:45;70.62;58.59;77.45;;
57092;Laerm;42968;52.094;4.328;2024-03-06T07:45:11;70.16;59.58;80.42;;
57092;Laerm;42968;52.094;4.328;2024-03-06T07:47:36;70.61;58.39;78.06;;
57092;Laerm;42968;52.094;4.328;2024-03-06T07:50:03;71.97;59.51;78.72;;
57092;Laerm;42968;52.094;4.328;2024-03-06T07:52:29;70.84;55.13;77.58;;
57092;Laerm;42968;52.094;4.328;2024-03-06T07:54:54;71.28;54.29;79.17;;
57092;Laerm;42968;52.094;4.328;2024-03-06T07:57:20;71.94;50.13;79.36;;
57092;Laerm;42968;52.094;4.328;2024-03-06T07:59:46;69.98;53.61;77.80;;
57092;Laerm;42968;52.094;4.328;2024-03-06T08:02:11;72.57;57.30;84.10;;
57092;Laerm;42968;52.094;4.328;2024-03-06T08:04:36;69.36;56.91;77.47;;
57092;Laerm;42968;52.094;4.328;2024-03-06T08:07:01;70.54;49.85;82.13;;
57092;Laerm;42968;52.094;4.328;2024-03-06T08:09:30;71.33;58.80;83.33;;
57092;Laerm;42968;52.094;4.328;2024-03-06T08:11:55;70.78;59.43;76.93;;
57092;Laerm;42968;52.094;4.328;2024-03-06T08:14:20;69.36;59.33;82.95;;
57092;Laerm;42968;52.094;4.328;2024-03-06T08:16:46;68.74;47.88;77.09;;
57092;Laerm;42968;52.094;4.328;2024-03-06T08:19:11;70.07;54.91;77.93;;
57092;Laerm;42968;52.094;4.328;2024-03-06T08:21:36;69.91;49.39;78.72;;
57092;Laerm;42968;52.094;4.328;2024-03-06T08:24:02;71.53;49.10;82.44;;
57092;Laerm;42968;52.094;4.328;2024-03-06T08:26:27;69.22;48.54;81.93;;
57092;Laerm;42968;52.094;4.328;2024-03-06T08:28:52;68.51;50.08;76.29;;
57092;Laerm;42968;52.094;4.328;2024-03-06T08:31:18;69.96;48.16;81.68;;
57092;Laerm;42968;52.094;4.328;2024-03-06T08:33:43;70.11;48.46;78.73;;
57092;Laerm;42968;52.094;4.328;2024-03-06T08:36:09;69.85;54.87;80.17;;
57092;Laerm;42968;52.094;4.328;2024-03-06T08:38:34;69.25;48.28;81.11;;
57092;Laerm;42968;52.094;4.328;2024-03-06T08:41:00;68.58;49.34;78.86;;
57092;Laerm;42968;52.094;4.328;2024-03-06T08:43:25;70.49;53.33;80.25;;
57092;Laerm;42968;52.094;4.328;2024-03-06T08:45:51;69.51;48.84;78.38;;
57092;Laerm;42968;52.094;4.328;2024-03-06T08:48:16;69.98;57.47;77.80;;
57092;Laerm;42968;52.094;4.328;2024-03-06T08:50:43;69.56;51.54;77.84;;
57092;Laerm;42968;52.094;4.328;2024-03-06T08:53:08;69.04;50.16;77.96;;
57092;Laerm;42968;52.094;4.328;2024-03-06T08:55:34;70.67;49.62;80.37;;
57092;Laerm;42968;52.094;4.328;2024-03-06T08:57:59;69.39;54.82;77.81;;
57092;Laerm;42968;52.094;4.328;2024-03-06T09:00:26;67.10;47.08;75.13;;
57092;Laerm;42968;52.094;4.328;2024-03-06T09:02:51;69.41;55.17;75.31;;
57092;Laerm;42968;52.094;4.328;2024-03-06T09:05:18;70.53;51.97;78.66;;
57092;Laerm;42968;52.094;4.328;2024-03-06T09:07:43;67.54;51.18;76.09;;
57092;Laerm;42968;52.094;4.328;2024-03-06T09:10:11;69.61;49.91;78.32;;
57092;Laerm;42968;52.094;4.328;2024-03-06T09:12:37;69.30;55.96;80.14;;
57092;Laerm;42968;52.094;4.328;2024-03-06T09:15:02;83.38;57.97;104.77;;
57092;Laerm;42968;52.094;4.328;2024-03-06T09:17:28;69.17;51.19;77.29;;
57092;Laerm;42968;52.094;4.328;2024-03-06T09:19:53;68.95;50.15;79.52;;
57092;Laerm;42968;52.094;4.328;2024-03-06T09:22:19;68.14;51.87;76.71;;
57092;Laerm;42968;52.094;4.328;2024-03-06T09:24:44;70.08;50.34;79.43;;
57092;Laerm;42968;52.094;4.328;2024-03-06T09:27:09;70.29;55.29;78.32;;
57092;Laerm;42968;52.094;4.328;2024-03-06T09:29:34;68.61;50.43;76.57;;
57092;Laerm;42968;52.094;4.328;2024-03-06T09:31:59;69.15;51.04;77.76;;
57092;Laerm;42968;52.094;4.328;2024-03-06T09:34:25;69.51;51.44;81.32;;
57092;Laerm;42968;52.094;4.328;2024-03-06T09:36:50;69.56;54.24;80.70;;
57092;Laerm;42968;52.094;4.328;2024-03-06T09:39:16;71.21;50.34;83.71;;
57092;Laerm;42968;52.094;4.328;2024-03-06T09:41:43;70.84;55.51;86.86;;
57092;Laerm;42968;52.094;4.328;2024-03-06T09:44:08;69.52;58.02;76.71;;
57092;Laerm;42968;52.094;4.328;2024-03-06T09:46:34;70.71;53.44;79.23;;
57092;Laerm;42968;52.094;4.328;2024-03-06T09:49:00;68.56;49.55;76.89;;
57092;Laerm;42968;52.094;4.328;2024-03-06T09:51:26;69.33;57.03;83.00;;
57092;Laerm;42968;52.094;4.328;2024-03-06T09:53:52;68.62;51.06;76.51;;
57092;Laerm;42968;52.094;4.328;2024-03-06T09:56:18;70.20;49.62;84.82;;
57092;Laerm;42968;52.094;4.328;2024-03-06T09:58:44;68.85;56.70;75.29;;
57092;Laerm;42968;52.094;4.328;2024-03-06T10:01:09;70.62;55.48;81.48;;
57092;Laerm;42968;52.094;4.328;2024-03-06T10:03:37;70.57;56.75;85.92;;
57092;Laerm;42968;52.094;4.328;2024-03-06T10:06:02;69.96;50.92;96.21;;
57092;Laerm;42968;52.094;4.328;2024-03-06T10:08:27;76.59;53.61;100.22;;
57092;Laerm;42968;52.094;4.328;2024-03-06T10:10:53;71.46;45.04;84.21;;
57092;Laerm;42968;52.094;4.328;2024-03-06T10:13:18;67.93;47.68;83.44;;
57092;Laerm;42968;52.094;4.328;2024-03-06T10:15:57;70.55;47.42;82.70;;
57092;Laerm;42968;52.094;4.328;2024-03-06T10:18:22;69.78;55.01;78.03;;
57092;Laerm;42968;52.094;4.328;2024-03-06T10:20:51;69.15;54.89;77.19;;
57092;Laerm;42968;52.094;4.328;2024-03-06T10:23:18;67.40;47.77;75.17;;
57092;Laerm;42968;52.094;4.328;2024-03-06T10:25:43;69.21;48.70;77.18;;
57092;Laerm;42968;52.094;4.328;2024-03-06T10:28:10;68.26;52.13;76.56;;
57092;Laerm;42968;52.094;4.328;2024-03-06T10:30:38;69.06;55.21;77.83;;
57092;Laerm;42968;52.094;4.328;2024-03-06T10:33:07;79.14;52.38;102.71;;
57092;Laerm;42968;52.094;4.328;2024-03-06T10:35:32;70.49;52.62;81.30;;
57092;Laerm;42968;52.094;4.328;2024-03-06T10:38:00;69.31;51.50;78.31;;
57092;Laerm;42968;52.094;4.328;2024-03-06T10:40:26;67.97;49.63;77.84;;
57092;Laerm;42968;52.094;4.328;2024-03-06T10:42:54;69.43;51.56;77.25;;
57092;Laerm;42968;52.094;4.328;2024-03-06T10:45:19;69.28;52.11;77.82;;
57092;Laerm;42968;52.094;4.328;2024-03-06T10:47:49;68.87;48.31;76.64;;
57092;Laerm;42968;52.094;4.328;2024-03-06T10:50:15;68.55;49.83;77.61;;
57092;Laerm;42968;52.094;4.328;2024-03-06T10:52:40;68.97;52.35;78.31;;
57092;Laerm;42968;52.094;4.328;2024-03-06T10:55:06;69.19;51.69;77.21;;
57092;Laerm;42968;52.094;4.328;2024-03-06T10:57:33;69.84;57.15;79.06;;
57092;Laerm;42968;52.094;4.328;2024-03-06T11:00:00;69.93;47.52;78.09;;
57092;Laerm;42968;52.094;4.328;2024-03-06T11:02:26;68.63;52.26;77.95;;
57092;Laerm;42968;52.094;4.328;2024-03-06T11:04:52;68.55;52.91;78.33;;
57092;Laerm;42968;52.094;4.328;2024-03-06T11:07:18;70.51;55.73;82.58;;
57092;Laerm;42968;52.094;4.328;2024-03-06T11:09:43;68.46;50.81;79.10;;
57092;Laerm;42968;52.094;4.328;2024-03-06T11:12:09;70.33;55.31;78.96;;
57092;Laerm;42968;52.094;4.328;2024-03-06T11:14:38;68.93;48.20;77.05;;
57092;Laerm;42968;52.094;4.328;2024-03-06T11:17:04;70.05;50.26;79.05;;
57092;Laerm;42968;52.094;4.328;2024-03-06T11:19:30;67.23;50.76;77.83;;
57092;Laerm;42968;52.094;4.328;2024-03-06T11:21:56;69.95;44.83;76.94;;
57092;Laerm;42968;52.094;4.328;2024-03-06T11:24:22;69.72;48.15;80.67;;
57092;Laerm;42968;52.094;4.328;2024-03-06T11:26:59;69.80;52.63;79.13;;
57092;Laerm;42968;52.094;4.328;2024-03-06T11:29:29;71.35;49.56;88.36;;
57092;Laerm;42968;52.094;4.328;2024-03-06T11:32:01;69.59;57.13;81.98;;
57092;Laerm;42968;52.094;4.328;2024-03-06T11:34:27;69.83;51.43;77.93;;
57092;Laerm;42968;52.094;4.328;2024-03-06T11:36:53;70.31;60.67;78.50;;
57092;Laerm;42968;52.094;4.328;2024-03-06T11:39:19;70.37;54.64;90.57;;
57092;Laerm;42968;52.094;4.328;2024-03-06T11:41:48;68.72;49.23;75.76;;
57092;Laerm;42968;52.094;4.328;2024-03-06T11:44:17;70.33;57.42;80.73;;
57092;Laerm;42968;52.094;4.328;2024-03-06T11:46:46;68.76;48.99;75.96;;
57092;Laerm;42968;52.094;4.328;2024-03-06T11:49:14;68.71;52.07;76.99;;
57092;Laerm;42968;52.094;4.328;2024-03-06T11:51:39;69.84;52.00;76.70;;
57092;Laerm;42968;52.094;4.328;2024-03-06T11:54:05;69.79;57.39;85.98;;
57092;Laerm;42968;52.094;4.328;2024-03-06T11:56:30;69.60;50.19;77.30;;
57092;Laerm;42968;52.094;4.328;2024-03-06T11:58:56;69.88;50.98;76.97;;
57092;Laerm;42968;52.094;4.328;2024-03-06T12:01:21;68.85;54.98;76.68;;
57092;Laerm;42968;52.094;4.328;2024-03-06T12:03:47;69.83;55.59;83.59;;
57092;Laerm;42968;52.094;4.328;2024-03-06T12:06:12;69.71;53.13;79.02;;
57092;Laerm;42968;52.094;4.328;2024-03-06T12:08:38;69.38;46.89;78.92;;
57092;Laerm;42968;52.094;4.328;2024-03-06T12:11:04;70.18;54.07;79.05;;
57092;Laerm;42968;52.094;4.328;2024-03-06T12:13:30;70.20;52.28;78.58;;
57092;Laerm;42968;52.094;4.328;2024-03-06T12:15:55;68.98;46.57;77.15;;
57092;Laerm;42968;52.094;4.328;2024-03-06T12:18:21;69.38;56.99;83.29;;
57092;Laerm;42968;52.094;4.328;2024-03-06T12:20:46;68.65;51.91;78.15;;
57092;Laerm;42968;52.094;4.328;2024-03-06T12:23:21;69.21;52.04;77.77;;
57092;Laerm;42968;52.094;4.328;2024-03-06T12:26:02;69.90;48.74;77.54;;
57092;Laerm;42968;52.094;4.328;2024-03-06T12:28:28;68.39;46.80;74.86;;
57092;Laerm;42968;52.094;4.328;2024-03-06T12:30:53;70.14;53.19;78.28;;
57092;Laerm;42968;52.094;4.328;2024-03-06T12:33:18;69.22;47.95;80.90;;
57092;Laerm;42968;52.094;4.328;2024-03-06T12:35:45;70.08;53.59;80.48;;
57092;Laerm;42968;52.094;4.328;2024-03-06T12:38:14;69.95;54.29;80.14;;
57092;Laerm;42968;52.094;4.328;2024-03-06T12:40:40;68.24;48.80;78.03;;
57092;Laerm;42968;52.094;4.328;2024-03-06T12:43:05;70.52;49.11;79.90;;
57092;Laerm;42968;52.094;4.328;2024-03-06T12:45:31;69.53;48.70;79.60;;
57092;Laerm;42968;52.094;4.328;2024-03-06T12:47:56;69.79;48.00;80.12;;
57092;Laerm;42968;52.094;4.328;2024-03-06T12:50:21;69.97;52.24;76.97;;
57092;Laerm;42968;52.094;4.328;2024-03-06T12:52:47;67.88;54.40;76.24;;
57092;Laerm;42968;52.094;4.328;2024-03-06T12:55:12;68.72;53.76;77.54;;
57092;Laerm;42968;52.094;4.328;2024-03-06T12:57:38;80.98;51.45;101.11;;
57092;Laerm;42968;52.094;4.328;2024-03-06T13:00:04;69.04;47.59;76.92;;
57092;Laerm;42968;52.094;4.328;2024-03-06T13:02:32;69.86;48.92;78.45;;
57092;Laerm;42968;52.094;4.328;2024-03-06T13:04:57;70.27;53.13;77.34;;
57092;Laerm;42968;52.094;4.328;2024-03-06T13:07:22;69.50;54.26;75.77;;
57092;Laerm;42968;52.094;4.328;2024-03-06T13:09:47;70.67;48.90;82.76;;
57092;Laerm;42968;52.094;4.328;2024-03-06T13:12:13;72.06;55.07;81.80;;
57092;Laerm;42968;52.094;4.328;2024-03-06T13:14:38;69.32;45.99;77.89;;
57092;Laerm;42968;52.094;4.328;2024-03-06T13:17:03;70.00;56.64;79.51;;
57092;Laerm;42968;52.094;4.328;2024-03-06T13:19:28;69.54;47.96;77.31;;
57092;Laerm;42968;52.094;4.328;2024-03-06T13:21:54;69.16;49.93;81.72;;
57092;Laerm;42968;52.094;4.328;2024-03-06T13:24:19;70.12;53.81;79.51;;
57092;Laerm;42968;52.094;4.328;2024-03-06T13:26:45;69.97;53.78;82.16;;
57092;Laerm;42968;52.094;4.328;2024-03-06T13:29:11;71.51;48.64;79.40;;
57092;Laerm;42968;52.094;4.328;2024-03-06T13:31:36;70.15;49.25;81.26;;
57092;Laerm;42968;52.094;4.328;2024-03-06T13:34:02;68.76;50.30;75.50;;
57092;Laerm;42968;52.094;4.328;2024-03-06T13:36:28;69.30;54.94;75.15;;